sensor_id;sensor_type;location;lat;lon;timestamp;P1;durP1;ratioP1;P2;durP2;ratioP2
24559;SDS011;12727;49.934;8.656;2023-03-24T00:02:19;4.57;;;3.10;;
24559;SDS011;12727;49.934;8.656;2023-03-24T00:04:47;3.88;;;3.08;;
24559;SDS011;12727;49.934;8.656;2023-03-24T00:07:14;6.90;;;3.35;;
24559;SDS011;12727;49.934;8.656;2023-03-24T00:09:41;4.95;;;3.30;;
24559;SDS011;12727;49.934;8.656;2023-03-24T00:12:08;3.97;;;2.58;;
24559;SDS011;12727;49.934;8.656;2023-03-24T00:14:35;3.92;;;3.28;;
24559;SDS011;12727;49.934;8.656;2023-03-24T00:17:03;4.72;;;3.42;;
24559;SDS011;12727;49.934;8.656;2023-03-24T00:19:36;4.53;;;2.97;;
24559;SDS011;12727;49.934;8.656;2023-03-24T00:22:03;5.30;;;3.15;;
24559;SDS011;12727;49.934;8.656;2023-03-24T00:24:32;4.22;;;3.00;;
24559;SDS011;12727;49.934;8.656;2023-03-24T00:26:59;7.75;;;3.17;;
24559;SDS011;12727;49.934;8.656;2023-03-24T00:29:27;4.20;;;3.00;;
24559;SDS011;12727;49.934;8.656;2023-03-24T00:31:53;5.88;;;3.08;;
24559;SDS011;12727;49.934;8.656;2023-03-24T00:34:19;4.05;;;3.20;;
24559;SDS011;12727;49.934;8.656;2023-03-24T00:36:46;4.45;;;2.95;;
24559;SDS011;12727;49.934;8.656;2023-03-24T00:39:15;3.78;;;3.00;;
24559;SDS011;12727;49.934;8.656;2023-03-24T00:41:43;5.13;;;2.65;;
24559;SDS011;12727;49.934;8.656;2023-03-24T00:44:10;5.18;;;3.00;;
24559;SDS011;12727;49.934;8.656;2023-03-24T00:46:47;3.40;;;2.63;;
24559;SDS011;12727;49.934;8.656;2023-03-24T00:49:21;3.45;;;2.50;;
24559;SDS011;12727;49.934;8.656;2023-03-24T00:52:07;4.65;;;2.15;;
24559;SDS011;12727;49.934;8.656;2023-03-24T00:54:34;2.58;;;2.35;;
24559;SDS011;12727;49.934;8.656;2023-03-24T00:57:00;6.00;;;2.92;;
24559;SDS011;12727;49.934;8.656;2023-03-24T00:59:27;3.78;;;2.78;;
24559;SDS011;12727;49.934;8.656;2023-03-24T01:01:53;3.78;;;2.50;;
24559;SDS011;12727;49.934;8.656;2023-03-24T01:04:20;5.03;;;2.63;;
24559;SDS011;12727;49.934;8.656;2023-03-24T01:06:50;5.72;;;2.70;;
24559;SDS011;12727;49.934;8.656;2023-03-24T01:09:16;5.03;;;2.47;;
24559;SDS011;12727;49.934;8.656;2023-03-24T01:11:45;4.43;;;2.70;;
24559;SDS011;12727;49.934;8.656;2023-03-24T01:14:11;3.67;;;2.72;;
24559;SDS011;12727;49.934;8.656;2023-03-24T01:16:38;4.05;;;2.42;;
24559;SDS011;12727;49.934;8.656;2023-03-24T01:19:06;7.18;;;3.45;;
24559;SDS011;12727;49.934;8.656;2023-03-24T01:21:33;6.03;;;3.25;;
24559;SDS011;12727;49.934;8.656;2023-03-24T01:24:00;5.13;;;2.95;;
24559;SDS011;12727;49.934;8.656;2023-03-24T01:26:27;7.05;;;3.17;;
24559;SDS011;12727;49.934;8.656;2023-03-24T01:28:52;4.40;;;2.65;;
24559;SDS011;12727;49.934;8.656;2023-03-24T01:31:18;5.25;;;2.60;;
24559;SDS011;12727;49.934;8.656;2023-03-24T01:33:44;4.55;;;2.65;;
24559;SDS011;12727;49.934;8.656;2023-03-24T01:36:09;4.30;;;2.42;;
24559;SDS011;12727;49.934;8.656;2023-03-24T01:38:35;3.10;;;2.58;;
24559;SDS011;12727;49.934;8.656;2023-03-24T01:41:02;4.75;;;2.50;;
24559;SDS011;12727;49.934;8.656;2023-03-24T01:43:29;4.53;;;2.80;;
24559;SDS011;12727;49.934;8.656;2023-03-24T01:48:26;3.47;;;2.70;;
24559;SDS011;12727;49.934;8.656;2023-03-24T01:51:03;5.78;;;2.47;;
24559;SDS011;12727;49.934;8.656;2023-03-24T01:53:46;5.53;;;2.70;;
24559;SDS011;12727;49.934;8.656;2023-03-24T01:56:19;5.78;;;2.90;;
24559;SDS011;12727;49.934;8.656;2023-03-24T01:59:05;4.90;;;2.75;;
24559;SDS011;12727;49.934;8.656;2023-03-24T02:01:34;3.40;;;2.58;;
24559;SDS011;12727;49.934;8.656;2023-03-24T02:04:01;4.43;;;2.55;;
24559;SDS011;12727;49.934;8.656;2023-03-24T02:06:29;3.88;;;2.33;;
24559;SDS011;12727;49.934;8.656;2023-03-24T02:08:58;4.85;;;2.53;;
24559;SDS011;12727;49.934;8.656;2023-03-24T02:11:26;4.05;;;2.53;;
24559;SDS011;12727;49.934;8.656;2023-03-24T02:13:54;4.47;;;2.50;;
24559;SDS011;12727;49.934;8.656;2023-03-24T02:27:30;3.80;;;2.58;;
24559;SDS011;12727;49.934;8.656;2023-03-24T02:30:25;4.70;;;2.70;;
24559;SDS011;12727;49.934;8.656;2023-03-24T02:33:28;6.13;;;2.75;;
24559;SDS011;12727;49.934;8.656;2023-03-24T02:42:22;4.35;;;2.50;;
24559;SDS011;12727;49.934;8.656;2023-03-24T02:50:26;3.83;;;2.33;;
24559;SDS011;12727;49.934;8.656;2023-03-24T02:53:16;5.88;;;2.63;;
24559;SDS011;12727;49.934;8.656;2023-03-24T02:55:51;4.95;;;2.42;;
24559;SDS011;12727;49.934;8.656;2023-03-24T02:58:28;4.18;;;2.40;;
24559;SDS011;12727;49.934;8.656;2023-03-24T03:01:01;3.65;;;2.33;;
24559;SDS011;12727;49.934;8.656;2023-03-24T03:03:48;7.43;;;2.88;;
24559;SDS011;12727;49.934;8.656;2023-03-24T03:06:21;4.80;;;2.45;;
24559;SDS011;12727;49.934;8.656;2023-03-24T03:08:51;4.32;;;2.72;;
24559;SDS011;12727;49.934;8.656;2023-03-24T03:11:17;3.03;;;2.20;;
24559;SDS011;12727;49.934;8.656;2023-03-24T03:13:49;4.47;;;2.53;;
24559;SDS011;12727;49.934;8.656;2023-03-24T03:16:34;4.97;;;2.13;;
24559;SDS011;12727;49.934;8.656;2023-03-24T03:19:07;3.42;;;1.90;;
24559;SDS011;12727;49.934;8.656;2023-03-24T03:21:39;7.85;;;2.30;;
24559;SDS011;12727;49.934;8.656;2023-03-24T03:24:08;3.08;;;1.95;;
24559;SDS011;12727;49.934;8.656;2023-03-24T03:26:39;3.38;;;2.08;;
24559;SDS011;12727;49.934;8.656;2023-03-24T03:29:09;2.70;;;1.90;;
24559;SDS011;12727;49.934;8.656;2023-03-24T03:31:41;3.33;;;2.15;;
24559;SDS011;12727;49.934;8.656;2023-03-24T03:34:21;3.70;;;2.22;;
24559;SDS011;12727;49.934;8.656;2023-03-24T03:40:06;6.18;;;2.30;;
24559;SDS011;12727;49.934;8.656;2023-03-24T03:42:39;4.45;;;2.33;;
24559;SDS011;12727;49.934;8.656;2023-03-24T03:45:06;5.63;;;2.30;;
24559;SDS011;12727;49.934;8.656;2023-03-24T03:47:34;4.25;;;2.72;;
24559;SDS011;12727;49.934;8.656;2023-03-24T03:50:00;2.95;;;2.30;;
24559;SDS011;12727;49.934;8.656;2023-03-24T03:52:26;5.40;;;2.72;;
24559;SDS011;12727;49.934;8.656;2023-03-24T03:54:52;4.60;;;2.33;;
24559;SDS011;12727;49.934;8.656;2023-03-24T03:57:18;3.70;;;2.67;;
24559;SDS011;12727;49.934;8.656;2023-03-24T03:59:44;4.28;;;2.58;;
24559;SDS011;12727;49.934;8.656;2023-03-24T04:05:06;3.72;;;2.90;;
24559;SDS011;12727;49.934;8.656;2023-03-24T04:07:48;4.05;;;2.80;;
24559;SDS011;12727;49.934;8.656;2023-03-24T04:13:32;4.40;;;3.22;;
24559;SDS011;12727;49.934;8.656;2023-03-24T04:16:06;4.95;;;3.50;;
24559;SDS011;12727;49.934;8.656;2023-03-24T04:18:49;5.47;;;3.13;;
24559;SDS011;12727;49.934;8.656;2023-03-24T04:23:58;5.20;;;4.07;;
24559;SDS011;12727;49.934;8.656;2023-03-24T04:26:53;6.03;;;3.60;;
24559;SDS011;12727;49.934;8.656;2023-03-24T04:32:31;5.55;;;3.70;;
24559;SDS011;12727;49.934;8.656;2023-03-24T04:35:20;7.05;;;4.00;;
24559;SDS011;12727;49.934;8.656;2023-03-24T04:37:55;5.07;;;4.05;;
24559;SDS011;12727;49.934;8.656;2023-03-24T04:40:26;5.82;;;4.20;;
24559;SDS011;12727;49.934;8.656;2023-03-24T04:42:57;5.53;;;4.10;;
24559;SDS011;12727;49.934;8.656;2023-03-24T04:45:27;6.32;;;4.28;;
24559;SDS011;12727;49.934;8.656;2023-03-24T04:47:58;7.38;;;4.10;;
24559;SDS011;12727;49.934;8.656;2023-03-24T04:50:31;5.65;;;4.10;;
24559;SDS011;12727;49.934;8.656;2023-03-24T04:52:58;6.00;;;4.57;;
24559;SDS011;12727;49.934;8.656;2023-03-24T04:57:56;6.38;;;4.50;;
24559;SDS011;12727;49.934;8.656;2023-03-24T05:00:22;6.53;;;4.43;;
24559;SDS011;12727;49.934;8.656;2023-03-24T05:02:48;6.85;;;4.43;;
24559;SDS011;12727;49.934;8.656;2023-03-24T05:05:16;7.63;;;4.30;;
24559;SDS011;12727;49.934;8.656;2023-03-24T05:07:42;6.07;;;4.63;;
24559;SDS011;12727;49.934;8.656;2023-03-24T05:10:08;6.00;;;5.13;;
24559;SDS011;12727;49.934;8.656;2023-03-24T05:12:34;7.40;;;5.55;;
24559;SDS011;12727;49.934;8.656;2023-03-24T05:15:00;5.90;;;5.15;;
24559;SDS011;12727;49.934;8.656;2023-03-24T05:17:26;7.50;;;5.78;;
24559;SDS011;12727;49.934;8.656;2023-03-24T05:19:51;7.43;;;5.18;;
24559;SDS011;12727;49.934;8.656;2023-03-24T05:22:17;9.20;;;5.05;;
24559;SDS011;12727;49.934;8.656;2023-03-24T05:24:42;6.13;;;5.07;;
24559;SDS011;12727;49.934;8.656;2023-03-24T05:27:08;9.07;;;5.50;;
24559;SDS011;12727;49.934;8.656;2023-03-24T05:29:34;7.85;;;5.05;;
24559;SDS011;12727;49.934;8.656;2023-03-24T05:31:59;8.27;;;5.32;;
24559;SDS011;12727;49.934;8.656;2023-03-24T05:34:25;7.85;;;5.25;;
24559;SDS011;12727;49.934;8.656;2023-03-24T05:36:50;6.75;;;5.30;;
24559;SDS011;12727;49.934;8.656;2023-03-24T05:39:16;5.43;;;4.63;;
24559;SDS011;12727;49.934;8.656;2023-03-24T05:41:41;8.35;;;4.93;;
24559;SDS011;12727;49.934;8.656;2023-03-24T05:44:07;6.50;;;4.97;;
24559;SDS011;12727;49.934;8.656;2023-03-24T05:46:32;6.05;;;4.43;;
24559;SDS011;12727;49.934;8.656;2023-03-24T05:48:58;6.55;;;4.43;;
24559;SDS011;12727;49.934;8.656;2023-03-24T05:51:23;6.15;;;4.88;;
24559;SDS011;12727;49.934;8.656;2023-03-24T05:53:49;7.03;;;4.47;;
24559;SDS011;12727;49.934;8.656;2023-03-24T05:56:16;5.38;;;3.85;;
24559;SDS011;12727;49.934;8.656;2023-03-24T05:58:41;6.82;;;4.22;;
24559;SDS011;12727;49.934;8.656;2023-03-24T06:01:09;5.22;;;3.35;;
24559;SDS011;12727;49.934;8.656;2023-03-24T06:03:36;8.00;;;3.83;;
24559;SDS011;12727;49.934;8.656;2023-03-24T06:06:08;4.55;;;4.07;;
24559;SDS011;12727;49.934;8.656;2023-03-24T06:11:04;5.53;;;3.83;;
24559;SDS011;12727;49.934;8.656;2023-03-24T06:13:30;7.32;;;3.90;;
24559;SDS011;12727;49.934;8.656;2023-03-24T06:15:56;7.32;;;4.13;;
24559;SDS011;12727;49.934;8.656;2023-03-24T06:18:26;6.40;;;3.80;;
24559;SDS011;12727;49.934;8.656;2023-03-24T06:20:54;8.55;;;4.55;;
24559;SDS011;12727;49.934;8.656;2023-03-24T06:23:24;6.75;;;4.80;;
24559;SDS011;12727;49.934;8.656;2023-03-24T06:25:55;7.90;;;4.85;;
24559;SDS011;12727;49.934;8.656;2023-03-24T06:28:22;6.80;;;4.63;;
24559;SDS011;12727;49.934;8.656;2023-03-24T06:30:54;6.35;;;4.00;;
24559;SDS011;12727;49.934;8.656;2023-03-24T06:33:22;6.45;;;4.30;;
24559;SDS011;12727;49.934;8.656;2023-03-24T06:35:50;7.75;;;4.13;;
24559;SDS011;12727;49.934;8.656;2023-03-24T06:38:16;6.13;;;3.70;;
24559;SDS011;12727;49.934;8.656;2023-03-24T06:40:41;4.47;;;3.45;;
24559;SDS011;12727;49.934;8.656;2023-03-24T06:43:07;4.97;;;3.33;;
24559;SDS011;12727;49.934;8.656;2023-03-24T06:45:32;3.72;;;3.00;;
24559;SDS011;12727;49.934;8.656;2023-03-24T06:47:58;5.25;;;3.10;;
24559;SDS011;12727;49.934;8.656;2023-03-24T06:50:24;2.95;;;2.08;;
24559;SDS011;12727;49.934;8.656;2023-03-24T06:52:51;3.55;;;2.40;;
24559;SDS011;12727;49.934;8.656;2023-03-24T06:55:17;3.22;;;2.50;;
24559;SDS011;12727;49.934;8.656;2023-03-24T06:57:43;3.78;;;2.78;;
24559;SDS011;12727;49.934;8.656;2023-03-24T07:00:09;2.97;;;2.50;;
24559;SDS011;12727;49.934;8.656;2023-03-24T07:02:35;4.82;;;2.53;;
24559;SDS011;12727;49.934;8.656;2023-03-24T07:05:02;2.65;;;2.30;;
24559;SDS011;12727;49.934;8.656;2023-03-24T07:07:33;2.60;;;2.13;;
24559;SDS011;12727;49.934;8.656;2023-03-24T07:09:59;3.22;;;2.13;;
24559;SDS011;12727;49.934;8.656;2023-03-24T07:12:26;2.20;;;1.98;;
24559;SDS011;12727;49.934;8.656;2023-03-24T07:14:52;3.70;;;2.15;;
24559;SDS011;12727;49.934;8.656;2023-03-24T07:17:17;3.03;;;2.20;;
24559;SDS011;12727;49.934;8.656;2023-03-24T07:19:43;3.28;;;2.13;;
24559;SDS011;12727;49.934;8.656;2023-03-24T07:22:09;3.13;;;1.88;;
24559;SDS011;12727;49.934;8.656;2023-03-24T07:24:36;3.53;;;2.10;;
24559;SDS011;12727;49.934;8.656;2023-03-24T07:27:01;4.00;;;2.25;;
24559;SDS011;12727;49.934;8.656;2023-03-24T07:29:27;2.67;;;2.20;;
24559;SDS011;12727;49.934;8.656;2023-03-24T07:31:53;3.45;;;2.38;;
24559;SDS011;12727;49.934;8.656;2023-03-24T07:34:22;2.63;;;2.10;;
24559;SDS011;12727;49.934;8.656;2023-03-24T07:36:48;3.05;;;2.15;;
24559;SDS011;12727;49.934;8.656;2023-03-24T07:39:14;2.95;;;1.70;;
24559;SDS011;12727;49.934;8.656;2023-03-24T07:41:40;3.70;;;2.50;;
24559;SDS011;12727;49.934;8.656;2023-03-24T07:44:06;2.97;;;2.58;;
24559;SDS011;12727;49.934;8.656;2023-03-24T07:46:31;4.32;;;2.35;;
24559;SDS011;12727;49.934;8.656;2023-03-24T07:48:57;3.80;;;2.58;;
24559;SDS011;12727;49.934;8.656;2023-03-24T07:51:22;3.28;;;2.88;;
24559;SDS011;12727;49.934;8.656;2023-03-24T07:53:48;3.97;;;2.72;;
24559;SDS011;12727;49.934;8.656;2023-03-24T07:56:13;3.45;;;3.03;;
24559;SDS011;12727;49.934;8.656;2023-03-24T07:58:39;3.50;;;3.00;;
24559;SDS011;12727;49.934;8.656;2023-03-24T08:01:06;5.07;;;3.38;;
24559;SDS011;12727;49.934;8.656;2023-03-24T08:03:34;4.20;;;3.20;;
24559;SDS011;12727;49.934;8.656;2023-03-24T08:06:01;5.05;;;4.00;;
24559;SDS011;12727;49.934;8.656;2023-03-24T08:08:28;4.65;;;4.10;;
24559;SDS011;12727;49.934;8.656;2023-03-24T08:10:53;7.25;;;4.03;;
24559;SDS011;12727;49.934;8.656;2023-03-24T08:13:19;5.50;;;3.95;;
24559;SDS011;12727;49.934;8.656;2023-03-24T08:15:45;6.15;;;4.15;;
24559;SDS011;12727;49.934;8.656;2023-03-24T08:18:10;4.97;;;3.92;;
24559;SDS011;12727;49.934;8.656;2023-03-24T08:20:36;4.63;;;3.72;;
24559;SDS011;12727;49.934;8.656;2023-03-24T08:23:01;4.75;;;3.95;;
24559;SDS011;12727;49.934;8.656;2023-03-24T08:25:28;5.30;;;4.18;;
24559;SDS011;12727;49.934;8.656;2023-03-24T08:27:54;5.38;;;4.18;;
24559;SDS011;12727;49.934;8.656;2023-03-24T08:30:22;4.85;;;3.80;;
24559;SDS011;12727;49.934;8.656;2023-03-24T08:32:50;7.18;;;3.80;;
24559;SDS011;12727;49.934;8.656;2023-03-24T08:35:18;6.75;;;4.40;;
24559;SDS011;12727;49.934;8.656;2023-03-24T08:37:46;4.82;;;4.30;;
24559;SDS011;12727;49.934;8.656;2023-03-24T08:40:12;5.20;;;3.85;;
24559;SDS011;12727;49.934;8.656;2023-03-24T08:42:43;4.95;;;3.70;;
24559;SDS011;12727;49.934;8.656;2023-03-24T08:45:12;5.90;;;4.57;;
24559;SDS011;12727;49.934;8.656;2023-03-24T08:47:38;7.53;;;4.47;;
24559;SDS011;12727;49.934;8.656;2023-03-24T08:50:04;5.13;;;4.40;;
24559;SDS011;12727;49.934;8.656;2023-03-24T08:52:32;8.75;;;5.00;;
24559;SDS011;12727;49.934;8.656;2023-03-24T08:54:58;10.23;;;5.28;;
24559;SDS011;12727;49.934;8.656;2023-03-24T08:57:23;6.80;;;4.07;;
24559;SDS011;12727;49.934;8.656;2023-03-24T08:59:50;6.80;;;4.65;;
24559;SDS011;12727;49.934;8.656;2023-03-24T09:02:15;6.35;;;4.60;;
24559;SDS011;12727;49.934;8.656;2023-03-24T09:04:41;6.88;;;4.30;;
24559;SDS011;12727;49.934;8.656;2023-03-24T09:07:08;5.45;;;4.55;;
24559;SDS011;12727;49.934;8.656;2023-03-24T09:09:34;6.55;;;3.92;;
24559;SDS011;12727;49.934;8.656;2023-03-24T09:12:00;7.57;;;4.15;;
24559;SDS011;12727;49.934;8.656;2023-03-24T09:14:27;7.90;;;4.03;;
24559;SDS011;12727;49.934;8.656;2023-03-24T09:16:52;4.68;;;3.90;;
24559;SDS011;12727;49.934;8.656;2023-03-24T09:19:18;6.28;;;3.88;;
24559;SDS011;12727;49.934;8.656;2023-03-24T09:21:44;5.68;;;4.05;;
24559;SDS011;12727;49.934;8.656;2023-03-24T09:24:11;5.30;;;4.28;;
24559;SDS011;12727;49.934;8.656;2023-03-24T09:26:36;5.40;;;4.22;;
24559;SDS011;12727;49.934;8.656;2023-03-24T09:29:02;4.28;;;3.10;;
24559;SDS011;12727;49.934;8.656;2023-03-24T09:31:28;3.38;;;2.78;;
24559;SDS011;12727;49.934;8.656;2023-03-24T09:33:54;5.65;;;3.05;;
24559;SDS011;12727;49.934;8.656;2023-03-24T09:36:20;4.60;;;2.58;;
24559;SDS011;12727;49.934;8.656;2023-03-24T09:38:45;3.17;;;2.85;;
24559;SDS011;12727;49.934;8.656;2023-03-24T09:41:15;4.60;;;2.67;;
24559;SDS011;12727;49.934;8.656;2023-03-24T09:46:16;5.88;;;3.50;;
24559;SDS011;12727;49.934;8.656;2023-03-24T09:49:03;5.00;;;2.95;;
24559;SDS011;12727;49.934;8.656;2023-03-24T09:51:32;6.30;;;3.15;;
24559;SDS011;12727;49.934;8.656;2023-03-24T09:54:13;5.38;;;3.15;;
24559;SDS011;12727;49.934;8.656;2023-03-24T09:59:19;5.55;;;2.95;;
24559;SDS011;12727;49.934;8.656;2023-03-24T10:02:11;4.72;;;1.77;;
24559;SDS011;12727;49.934;8.656;2023-03-24T10:04:42;4.40;;;1.33;;
24559;SDS011;12727;49.934;8.656;2023-03-24T10:09:56;2.72;;;1.33;;
24559;SDS011;12727;49.934;8.656;2023-03-24T10:26:17;1.92;;;0.50;;
24559;SDS011;12727;49.934;8.656;2023-03-24T10:28:52;1.13;;;0.50;;
24559;SDS011;12727;49.934;8.656;2023-03-24T10:31:36;1.85;;;0.52;;
24559;SDS011;12727;49.934;8.656;2023-03-24T10:34:04;4.40;;;0.60;;
24559;SDS011;12727;49.934;8.656;2023-03-24T10:36:34;2.30;;;0.73;;
24559;SDS011;12727;49.934;8.656;2023-03-24T10:39:00;1.98;;;0.80;;
24559;SDS011;12727;49.934;8.656;2023-03-24T10:41:26;3.80;;;1.10;;
24559;SDS011;12727;49.934;8.656;2023-03-24T10:43:53;2.83;;;0.80;;
24559;SDS011;12727;49.934;8.656;2023-03-24T10:46:22;1.15;;;0.70;;
24559;SDS011;12727;49.934;8.656;2023-03-24T10:51:41;0.77;;;0.50;;
24559;SDS011;12727;49.934;8.656;2023-03-24T10:56:50;1.90;;;0.50;;
24559;SDS011;12727;49.934;8.656;2023-03-24T10:59:21;3.20;;;1.00;;
24559;SDS011;12727;49.934;8.656;2023-03-24T11:02:33;1.40;;;0.65;;
24559;SDS011;12727;49.934;8.656;2023-03-24T11:04:56;3.03;;;1.00;;
24559;SDS011;12727;49.934;8.656;2023-03-24T11:07:29;8.05;;;2.80;;
24559;SDS011;12727;49.934;8.656;2023-03-24T11:12:35;2.50;;;1.50;;
24559;SDS011;12727;49.934;8.656;2023-03-24T11:15:17;2.47;;;0.70;;
24559;SDS011;12727;49.934;8.656;2023-03-24T11:20:24;2.50;;;1.00;;
24559;SDS011;12727;49.934;8.656;2023-03-24T11:22:58;3.35;;;1.35;;
24559;SDS011;12727;49.934;8.656;2023-03-24T11:27:58;2.08;;;0.70;;
24559;SDS011;12727;49.934;8.656;2023-03-24T11:30:26;4.47;;;1.30;;
24559;SDS011;12727;49.934;8.656;2023-03-24T11:33:00;6.70;;;2.20;;
24559;SDS011;12727;49.934;8.656;2023-03-24T11:35:27;2.92;;;1.10;;
24559;SDS011;12727;49.934;8.656;2023-03-24T11:37:55;6.38;;;1.85;;
24559;SDS011;12727;49.934;8.656;2023-03-24T11:40:21;2.65;;;0.68;;
24559;SDS011;12727;49.934;8.656;2023-03-24T11:42:50;2.05;;;0.80;;
24559;SDS011;12727;49.934;8.656;2023-03-24T11:45:38;2.55;;;0.40;;
24559;SDS011;12727;49.934;8.656;2023-03-24T11:48:13;2.60;;;1.20;;
24559;SDS011;12727;49.934;8.656;2023-03-24T11:50:50;5.53;;;1.73;;
24559;SDS011;12727;49.934;8.656;2023-03-24T11:53:17;2.45;;;0.60;;
24559;SDS011;12727;49.934;8.656;2023-03-24T11:55:53;1.95;;;0.93;;
24559;SDS011;12727;49.934;8.656;2023-03-24T11:58:51;5.50;;;1.75;;
24559;SDS011;12727;49.934;8.656;2023-03-24T12:01:29;2.15;;;0.60;;
24559;SDS011;12727;49.934;8.656;2023-03-24T12:13:09;14.10;;;5.70;;
24559;SDS011;12727;49.934;8.656;2023-03-24T12:21:26;3.00;;;0.68;;
24559;SDS011;12727;49.934;8.656;2023-03-24T12:26:47;5.03;;;1.25;;
24559;SDS011;12727;49.934;8.656;2023-03-24T12:32:07;4.35;;;1.20;;
24559;SDS011;12727;49.934;8.656;2023-03-24T12:40:31;4.43;;;0.80;;
24559;SDS011;12727;49.934;8.656;2023-03-24T12:43:17;2.33;;;0.82;;
24559;SDS011;12727;49.934;8.656;2023-03-24T12:45:54;3.75;;;0.50;;
24559;SDS011;12727;49.934;8.656;2023-03-24T12:51:13;4.40;;;0.85;;
24559;SDS011;12727;49.934;8.656;2023-03-24T12:56:46;3.97;;;0.50;;
24559;SDS011;12727;49.934;8.656;2023-03-24T12:59:18;5.65;;;0.75;;
24559;SDS011;12727;49.934;8.656;2023-03-24T13:06:51;4.88;;;1.50;;
24559;SDS011;12727;49.934;8.656;2023-03-24T13:17:53;4.53;;;0.88;;
24559;SDS011;12727;49.934;8.656;2023-03-24T13:20:42;3.33;;;0.60;;
24559;SDS011;12727;49.934;8.656;2023-03-24T13:23:44;3.55;;;0.63;;
24559;SDS011;12727;49.934;8.656;2023-03-24T13:26:20;4.30;;;0.82;;
24559;SDS011;12727;49.934;8.656;2023-03-24T13:28:52;3.75;;;0.77;;
24559;SDS011;12727;49.934;8.656;2023-03-24T13:31:26;2.92;;;0.65;;
24559;SDS011;12727;49.934;8.656;2023-03-24T13:33:55;2.45;;;0.60;;
24559;SDS011;12727;49.934;8.656;2023-03-24T13:39:01;5.13;;;0.82;;
24559;SDS011;12727;49.934;8.656;2023-03-24T13:41:34;3.78;;;0.60;;
24559;SDS011;12727;49.934;8.656;2023-03-24T13:44:05;1.52;;;0.55;;
24559;SDS011;12727;49.934;8.656;2023-03-24T13:46:37;5.30;;;1.17;;
24559;SDS011;12727;49.934;8.656;2023-03-24T13:49:10;3.05;;;0.60;;
24559;SDS011;12727;49.934;8.656;2023-03-24T13:51:40;5.05;;;0.70;;
24559;SDS011;12727;49.934;8.656;2023-03-24T13:54:19;3.10;;;0.90;;
24559;SDS011;12727;49.934;8.656;2023-03-24T13:56:51;3.97;;;0.73;;
24559;SDS011;12727;49.934;8.656;2023-03-24T14:12:51;2.72;;;0.80;;
24559;SDS011;12727;49.934;8.656;2023-03-24T14:17:52;2.47;;;0.63;;
24559;SDS011;12727;49.934;8.656;2023-03-24T14:20:24;4.63;;;1.10;;
24559;SDS011;12727;49.934;8.656;2023-03-24T14:22:58;2.95;;;0.70;;
24559;SDS011;12727;49.934;8.656;2023-03-24T14:25:28;3.47;;;0.77;;
24559;SDS011;12727;49.934;8.656;2023-03-24T14:28:10;4.00;;;0.82;;
24559;SDS011;12727;49.934;8.656;2023-03-24T14:31:02;3.70;;;0.80;;
24559;SDS011;12727;49.934;8.656;2023-03-24T14:33:34;2.35;;;0.98;;
24559;SDS011;12727;49.934;8.656;2023-03-24T14:36:03;2.65;;;0.68;;
24559;SDS011;12727;49.934;8.656;2023-03-24T14:38:35;1.92;;;0.90;;
24559;SDS011;12727;49.934;8.656;2023-03-24T14:41:11;3.58;;;0.50;;
24559;SDS011;12727;49.934;8.656;2023-03-24T14:48:56;4.88;;;0.80;;
24559;SDS011;12727;49.934;8.656;2023-03-24T14:54:10;5.55;;;0.65;;
24559;SDS011;12727;49.934;8.656;2023-03-24T14:56:39;3.20;;;0.80;;
24559;SDS011;12727;49.934;8.656;2023-03-24T14:59:10;3.80;;;0.90;;
24559;SDS011;12727;49.934;8.656;2023-03-24T15:01:54;5.45;;;0.90;;
24559;SDS011;12727;49.934;8.656;2023-03-24T15:04:27;2.85;;;0.70;;
24559;SDS011;12727;49.934;8.656;2023-03-24T15:06:53;1.83;;;0.68;;
24559;SDS011;12727;49.934;8.656;2023-03-24T15:09:18;3.90;;;1.00;;
24559;SDS011;12727;49.934;8.656;2023-03-24T15:11:45;4.68;;;1.00;;
24559;SDS011;12727;49.934;8.656;2023-03-24T15:14:22;3.60;;;0.88;;
24559;SDS011;12727;49.934;8.656;2023-03-24T15:16:53;3.83;;;1.15;;
24559;SDS011;12727;49.934;8.656;2023-03-24T15:19:26;2.28;;;0.65;;
24559;SDS011;12727;49.934;8.656;2023-03-24T15:21:58;3.63;;;0.73;;
24559;SDS011;12727;49.934;8.656;2023-03-24T15:24:29;2.83;;;0.60;;
24559;SDS011;12727;49.934;8.656;2023-03-24T15:32:00;3.72;;;0.80;;
24559;SDS011;12727;49.934;8.656;2023-03-24T15:36:58;3.28;;;0.75;;
24559;SDS011;12727;49.934;8.656;2023-03-24T15:39:33;3.97;;;1.30;;
24559;SDS011;12727;49.934;8.656;2023-03-24T15:42:02;2.15;;;0.50;;
24559;SDS011;12727;49.934;8.656;2023-03-24T15:44:29;3.40;;;0.85;;
24559;SDS011;12727;49.934;8.656;2023-03-24T15:46:55;3.78;;;0.88;;
24559;SDS011;12727;49.934;8.656;2023-03-24T15:49:29;2.75;;;0.70;;
24559;SDS011;12727;49.934;8.656;2023-03-24T15:51:58;2.72;;;0.65;;
24559;SDS011;12727;49.934;8.656;2023-03-24T15:54:29;2.92;;;0.70;;
24559;SDS011;12727;49.934;8.656;2023-03-24T15:57:11;1.80;;;0.70;;
24559;SDS011;12727;49.934;8.656;2023-03-24T15:59:46;5.00;;;0.60;;
24559;SDS011;12727;49.934;8.656;2023-03-24T16:04:56;4.68;;;0.63;;
24559;SDS011;12727;49.934;8.656;2023-03-24T16:07:27;1.67;;;0.70;;
24559;SDS011;12727;49.934;8.656;2023-03-24T16:10:03;6.68;;;1.02;;
24559;SDS011;12727;49.934;8.656;2023-03-24T16:12:34;5.43;;;1.20;;
24559;SDS011;12727;49.934;8.656;2023-03-24T16:15:00;1.73;;;0.75;;
24559;SDS011;12727;49.934;8.656;2023-03-24T16:17:29;2.85;;;0.60;;
24559;SDS011;12727;49.934;8.656;2023-03-24T16:19:54;4.03;;;0.70;;
24559;SDS011;12727;49.934;8.656;2023-03-24T16:22:20;2.80;;;0.50;;
24559;SDS011;12727;49.934;8.656;2023-03-24T16:24:46;2.85;;;0.70;;
24559;SDS011;12727;49.934;8.656;2023-03-24T16:27:12;1.98;;;0.50;;
24559;SDS011;12727;49.934;8.656;2023-03-24T16:29:37;6.50;;;0.70;;
24559;SDS011;12727;49.934;8.656;2023-03-24T16:32:03;5.20;;;0.98;;
24559;SDS011;12727;49.934;8.656;2023-03-24T16:34:29;3.72;;;0.65;;
24559;SDS011;12727;49.934;8.656;2023-03-24T16:36:55;4.55;;;1.05;;
24559;SDS011;12727;49.934;8.656;2023-03-24T16:39:22;6.35;;;1.00;;
24559;SDS011;12727;49.934;8.656;2023-03-24T16:41:51;2.90;;;0.43;;
24559;SDS011;12727;49.934;8.656;2023-03-24T16:44:17;3.63;;;0.70;;
24559;SDS011;12727;49.934;8.656;2023-03-24T16:46:44;2.53;;;0.80;;
24559;SDS011;12727;49.934;8.656;2023-03-24T16:49:14;5.00;;;0.90;;
24559;SDS011;12727;49.934;8.656;2023-03-24T16:51:41;3.13;;;0.90;;
24559;SDS011;12727;49.934;8.656;2023-03-24T16:54:07;5.93;;;1.40;;
24559;SDS011;12727;49.934;8.656;2023-03-24T16:56:33;4.00;;;0.93;;
24559;SDS011;12727;49.934;8.656;2023-03-24T16:59:00;3.38;;;1.08;;
24559;SDS011;12727;49.934;8.656;2023-03-24T17:03:54;5.35;;;1.42;;
24559;SDS011;12727;49.934;8.656;2023-03-24T17:06:28;4.22;;;1.05;;
24559;SDS011;12727;49.934;8.656;2023-03-24T17:08:56;5.40;;;0.75;;
24559;SDS011;12727;49.934;8.656;2023-03-24T17:11:25;3.60;;;0.80;;
24559;SDS011;12727;49.934;8.656;2023-03-24T17:14:01;3.00;;;0.80;;
24559;SDS011;12727;49.934;8.656;2023-03-24T17:16:32;5.20;;;0.80;;
24559;SDS011;12727;49.934;8.656;2023-03-24T17:19:02;7.25;;;0.60;;
24559;SDS011;12727;49.934;8.656;2023-03-24T17:21:28;2.58;;;0.65;;
24559;SDS011;12727;49.934;8.656;2023-03-24T17:23:56;7.60;;;0.77;;
24559;SDS011;12727;49.934;8.656;2023-03-24T17:26:22;4.28;;;0.80;;
24559;SDS011;12727;49.934;8.656;2023-03-24T17:28:48;5.90;;;0.93;;
24559;SDS011;12727;49.934;8.656;2023-03-24T17:31:14;2.33;;;0.52;;
24559;SDS011;12727;49.934;8.656;2023-03-24T17:33:39;6.05;;;1.08;;
24559;SDS011;12727;49.934;8.656;2023-03-24T17:36:06;8.90;;;1.00;;
24559;SDS011;12727;49.934;8.656;2023-03-24T17:38:32;5.95;;;0.90;;
24559;SDS011;12727;49.934;8.656;2023-03-24T17:41:01;6.20;;;1.23;;
24559;SDS011;12727;49.934;8.656;2023-03-24T17:43:28;9.70;;;1.00;;
24559;SDS011;12727;49.934;8.656;2023-03-24T17:45:58;6.05;;;1.30;;
24559;SDS011;12727;49.934;8.656;2023-03-24T17:48:25;9.13;;;1.17;;
24559;SDS011;12727;49.934;8.656;2023-03-24T17:50:51;6.07;;;1.42;;